sensor_id;sensor_type;location;lat;lon;timestamp;pressure;altitude;pressure_sealevel;temperature;humidity
72262;BME280;60173;52.112;8.648;2023-12-04T00:00:10;100696.75;;;-1.33;94.21
72262;BME280;60173;52.112;8.648;2023-12-04T00:02:37;100692.03;;;-1.31;94.24
72262;BME280;60173;52.112;8.648;2023-12-04T00:05:04;100693.44;;;-1.29;94.46
72262;BME280;60173;52.112;8.648;2023-12-04T00:07:31;100687.78;;;-1.46;94.59
72262;BME280;60173;52.112;8.648;2023-12-04T00:09:57;100678.38;;;-1.42;95.30
72262;BME280;60173;52.112;8.648;2023-12-04T00:12:23;100669.72;;;-1.37;95.36
72262;BME280;60173;52.112;8.648;2023-12-04T00:14:50;100666.72;;;-1.54;95.93
72262;BME280;60173;52.112;8.648;2023-12-04T00:17:17;100667.69;;;-1.42;96.72
72262;BME280;60173;52.112;8.648;2023-12-04T00:19:43;100662.41;;;-1.48;96.28
72262;BME280;60173;52.112;8.648;2023-12-04T00:22:09;100657.84;;;-1.41;96.30
72262;BME280;60173;52.112;8.648;2023-12-04T00:24:36;100651.59;;;-1.60;96.52
72262;BME280;60173;52.112;8.648;2023-12-04T00:27:02;100650.97;;;-1.62;96.86
72262;BME280;60173;52.112;8.648;2023-12-04T00:29:29;100655.50;;;-1.56;97.36
72262;BME280;60173;52.112;8.648;2023-12-04T00:31:55;100642.75;;;-1.54;96.96
72262;BME280;60173;52.112;8.648;2023-12-04T00:34:22;100638.09;;;-1.58;97.34
72262;BME280;60173;52.112;8.648;2023-12-04T00:36:48;100643.56;;;-1.53;97.29
72262;BME280;60173;52.112;8.648;2023-12-04T00:39:15;100627.19;;;-1.50;97.41
72262;BME280;60173;52.112;8.648;2023-12-04T00:41:42;100629.28;;;-1.59;97.93
72262;BME280;60173;52.112;8.648;2023-12-04T00:44:08;100627.13;;;-1.44;98.29
72262;BME280;60173;52.112;8.648;2023-12-04T00:46:34;100627.38;;;-1.52;98.66
72262;BME280;60173;52.112;8.648;2023-12-04T00:49:01;100631.97;;;-1.34;98.34
72262;BME280;60173;52.112;8.648;2023-12-04T00:51:27;100627.47;;;-1.33;97.95
72262;BME280;60173;52.112;8.648;2023-12-04T00:53:55;100630.78;;;-1.38;97.96
72262;BME280;60173;52.112;8.648;2023-12-04T00:56:21;100623.78;;;-1.32;98.31
72262;BME280;60173;52.112;8.648;2023-12-04T00:58:47;100624.06;;;-1.16;97.68
72262;BME280;60173;52.112;8.648;2023-12-04T01:01:14;100622.81;;;-1.13;97.17
72262;BME280;60173;52.112;8.648;2023-12-04T01:03:40;100627.13;;;-1.12;97.04
72262;BME280;60173;52.112;8.648;2023-12-04T01:06:07;100619.66;;;-1.28;97.56
72262;BME280;60173;52.112;8.648;2023-12-04T01:08:33;100617.97;;;-1.23;97.45
72262;BME280;60173;52.112;8.648;2023-12-04T01:11:00;100615.94;;;-1.27;97.77
72262;BME280;60173;52.112;8.648;2023-12-04T01:13:26;100614.69;;;-1.25;97.96
72262;BME280;60173;52.112;8.648;2023-12-04T01:15:53;100614.56;;;-1.37;97.99
72262;BME280;60173;52.112;8.648;2023-12-04T01:18:19;100607.63;;;-1.38;98.06
72262;BME280;60173;52.112;8.648;2023-12-04T01:20:46;100602.59;;;-1.21;97.73
72262;BME280;60173;52.112;8.648;2023-12-04T01:23:12;100593.75;;;-1.46;98.06
72262;BME280;60173;52.112;8.648;2023-12-04T01:25:38;100597.66;;;-1.49;98.22
72262;BME280;60173;52.112;8.648;2023-12-04T01:28:05;100585.00;;;-1.60;98.79
72262;BME280;60173;52.112;8.648;2023-12-04T01:30:31;100596.47;;;-1.53;99.18
72262;BME280;60173;52.112;8.648;2023-12-04T01:32:58;100587.41;;;-1.52;99.39
72262;BME280;60173;52.112;8.648;2023-12-04T01:35:24;100585.38;;;-1.50;99.29
72262;BME280;60173;52.112;8.648;2023-12-04T01:37:50;100583.59;;;-1.63;99.19
72262;BME280;60173;52.112;8.648;2023-12-04T01:40:17;100578.81;;;-1.47;99.34
72262;BME280;60173;52.112;8.648;2023-12-04T01:42:43;100576.34;;;-1.49;99.26
72262;BME280;60173;52.112;8.648;2023-12-04T01:45:10;100575.78;;;-1.57;99.30
72262;BME280;60173;52.112;8.648;2023-12-04T01:47:36;100583.63;;;-1.69;99.64
72262;BME280;60173;52.112;8.648;2023-12-04T01:50:04;100580.22;;;-1.76;100.00
72262;BME280;60173;52.112;8.648;2023-12-04T01:52:31;100568.28;;;-1.67;100.00
72262;BME280;60173;52.112;8.648;2023-12-04T01:54:58;100571.94;;;-1.68;100.00
72262;BME280;60173;52.112;8.648;2023-12-04T01:57:24;100570.69;;;-1.66;100.00
72262;BME280;60173;52.112;8.648;2023-12-04T01:59:51;100558.56;;;-1.55;100.00
72262;BME280;60173;52.112;8.648;2023-12-04T02:02:17;100559.16;;;-1.53;100.00
72262;BME280;60173;52.112;8.648;2023-12-04T02:04:44;100561.53;;;-1.45;100.00
72262;BME280;60173;52.112;8.648;2023-12-04T02:07:11;100555.91;;;-1.55;99.82
72262;BME280;60173;52.112;8.648;2023-12-04T02:09:37;100547.28;;;-1.57;99.96
72262;BME280;60173;52.112;8.648;2023-12-04T02:12:04;100546.09;;;-1.61;100.00
72262;BME280;60173;52.112;8.648;2023-12-04T02:14:31;100536.56;;;-1.44;100.00
72262;BME280;60173;52.112;8.648;2023-12-04T02:16:58;100539.66;;;-1.47;100.00
72262;BME280;60173;52.112;8.648;2023-12-04T02:19:26;100534.53;;;-1.73;100.00
72262;BME280;60173;52.112;8.648;2023-12-04T02:21:53;100532.00;;;-1.68;100.00
72262;BME280;60173;52.112;8.648;2023-12-04T02:24:19;100540.53;;;-1.60;100.00
72262;BME280;60173;52.112;8.648;2023-12-04T02:26:54;100536.63;;;-1.82;100.00
72262;BME280;60173;52.112;8.648;2023-12-04T02:29:30;100537.63;;;-1.76;100.00
72262;BME280;60173;52.112;8.648;2023-12-04T02:31:58;100535.53;;;-1.74;100.00
72262;BME280;60173;52.112;8.648;2023-12-04T02:34:27;100521.53;;;-1.63;100.00
72262;BME280;60173;52.112;8.648;2023-12-04T02:36:56;100523.25;;;-1.75;100.00
72262;BME280;60173;52.112;8.648;2023-12-04T02:39:23;100515.31;;;-1.82;100.00
72262;BME280;60173;52.112;8.648;2023-12-04T02:41:50;100507.34;;;-1.82;100.00
72262;BME280;60173;52.112;8.648;2023-12-04T02:44:17;100502.84;;;-1.88;100.00
72262;BME280;60173;52.112;8.648;2023-12-04T02:46:43;100501.16;;;-1.83;100.00
72262;BME280;60173;52.112;8.648;2023-12-04T02:49:10;100487.31;;;-1.91;100.00
72262;BME280;60173;52.112;8.648;2023-12-04T02:51:36;100488.56;;;-1.94;100.00
72262;BME280;60173;52.112;8.648;2023-12-04T02:54:03;100485.69;;;-1.92;100.00
72262;BME280;60173;52.112;8.648;2023-12-04T02:56:29;100487.31;;;-1.91;100.00
72262;BME280;60173;52.112;8.648;2023-12-04T02:58:56;100482.75;;;-1.84;100.00
72262;BME280;60173;52.112;8.648;2023-12-04T03:01:22;100475.75;;;-1.78;100.00
72262;BME280;60173;52.112;8.648;2023-12-04T03:03:48;100468.03;;;-1.87;100.00
72262;BME280;60173;52.112;8.648;2023-12-04T03:06:15;100457.22;;;-1.92;100.00
72262;BME280;60173;52.112;8.648;2023-12-04T03:08:42;100450.88;;;-1.91;100.00
72262;BME280;60173;52.112;8.648;2023-12-04T03:11:08;100450.88;;;-1.91;100.00
72262;BME280;60173;52.112;8.648;2023-12-04T03:13:35;100453.03;;;-1.81;99.82
72262;BME280;60173;52.112;8.648;2023-12-04T03:16:01;100445.06;;;-1.81;98.96
72262;BME280;60173;52.112;8.648;2023-12-04T03:18:28;100432.50;;;-1.99;98.65
72262;BME280;60173;52.112;8.648;2023-12-04T03:20:54;100442.88;;;-1.91;97.87
72262;BME280;60173;52.112;8.648;2023-12-04T03:23:21;100434.50;;;-1.94;97.47
72262;BME280;60173;52.112;8.648;2023-12-04T03:25:47;100438.31;;;-1.84;97.20
72262;BME280;60173;52.112;8.648;2023-12-04T03:28:14;100427.94;;;-1.67;96.58
72262;BME280;60173;52.112;8.648;2023-12-04T03:30:40;100424.91;;;-1.70;95.87
72262;BME280;60173;52.112;8.648;2023-12-04T03:33:06;100423.53;;;-1.79;95.48
72262;BME280;60173;52.112;8.648;2023-12-04T03:35:33;100426.44;;;-1.56;94.81
72262;BME280;60173;52.112;8.648;2023-12-04T03:37:59;100417.03;;;-1.58;94.19
72262;BME280;60173;52.112;8.648;2023-12-04T03:40:26;100418.28;;;-1.61;93.73
72262;BME280;60173;52.112;8.648;2023-12-04T03:42:52;100419.16;;;-1.49;93.87
72262;BME280;60173;52.112;8.648;2023-12-04T03:45:19;100418.75;;;-1.27;92.65
72262;BME280;60173;52.112;8.648;2023-12-04T03:47:45;100416.66;;;-1.44;91.81
72262;BME280;60173;52.112;8.648;2023-12-04T03:50:12;100416.44;;;-1.42;91.84
72262;BME280;60173;52.112;8.648;2023-12-04T03:52:38;100410.38;;;-1.49;91.44
72262;BME280;60173;52.112;8.648;2023-12-04T03:55:05;100406.28;;;-1.52;91.70
72262;BME280;60173;52.112;8.648;2023-12-04T03:57:32;100406.41;;;-1.65;92.12
72262;BME280;60173;52.112;8.648;2023-12-04T03:59:58;100400.69;;;-1.44;92.17
72262;BME280;60173;52.112;8.648;2023-12-04T04:02:25;100394.03;;;-1.53;91.44
72262;BME280;60173;52.112;8.648;2023-12-04T04:04:51;100399.44;;;-1.41;90.93
72262;BME280;60173;52.112;8.648;2023-12-04T04:07:17;100391.34;;;-1.53;90.72
72262;BME280;60173;52.112;8.648;2023-12-04T04:09:44;100389.94;;;-1.55;91.02
72262;BME280;60173;52.112;8.648;2023-12-04T04:12:11;100388.75;;;-1.60;91.50
72262;BME280;60173;52.112;8.648;2023-12-04T04:14:37;100385.31;;;-1.42;91.18
72262;BME280;60173;52.112;8.648;2023-12-04T04:17:04;100379.22;;;-1.49;90.94
72262;BME280;60173;52.112;8.648;2023-12-04T04:19:30;100383.22;;;-1.40;90.64
72262;BME280;60173;52.112;8.648;2023-12-04T04:21:58;100375.03;;;-1.38;90.31
72262;BME280;60173;52.112;8.648;2023-12-04T04:24:24;100379.97;;;-1.42;90.46
72262;BME280;60173;52.112;8.648;2023-12-04T04:26:50;100363.47;;;-1.50;90.54
72262;BME280;60173;52.112;8.648;2023-12-04T04:29:17;100366.50;;;-1.47;90.64
72262;BME280;60173;52.112;8.648;2023-12-04T04:31:43;100368.28;;;-1.41;89.61
72262;BME280;60173;52.112;8.648;2023-12-04T04:34:10;100376.28;;;-1.41;90.34
72262;BME280;60173;52.112;8.648;2023-12-04T04:36:36;100365.97;;;-1.37;89.57
72262;BME280;60173;52.112;8.648;2023-12-04T04:39:03;100358.22;;;-1.39;89.11
72262;BME280;60173;52.112;8.648;2023-12-04T04:41:29;100364.72;;;-1.34;88.54
72262;BME280;60173;52.112;8.648;2023-12-04T04:43:56;100356.66;;;-1.28;88.39
72262;BME280;60173;52.112;8.648;2023-12-04T04:46:22;100352.56;;;-1.30;88.67
72262;BME280;60173;52.112;8.648;2023-12-04T04:48:48;100356.53;;;-1.33;88.30
72262;BME280;60173;52.112;8.648;2023-12-04T04:51:15;100353.03;;;-1.15;87.25
72262;BME280;60173;52.112;8.648;2023-12-04T04:53:41;100356.28;;;-1.13;87.76
72262;BME280;60173;52.112;8.648;2023-12-04T04:56:08;100352.13;;;-1.09;87.38
72262;BME280;60173;52.112;8.648;2023-12-04T04:58:35;100348.59;;;-1.21;87.39
72262;BME280;60173;52.112;8.648;2023-12-04T05:01:01;100356.28;;;-1.13;86.85
72262;BME280;60173;52.112;8.648;2023-12-04T05:03:28;100349.03;;;-1.06;85.80
72262;BME280;60173;52.112;8.648;2023-12-04T05:05:54;100353.09;;;-1.03;86.40
72262;BME280;60173;52.112;8.648;2023-12-04T05:08:20;100349.28;;;-0.96;85.96
72262;BME280;60173;52.112;8.648;2023-12-04T05:10:47;100348.56;;;-1.03;86.23
72262;BME280;60173;52.112;8.648;2023-12-04T05:13:13;100351.69;;;-1.06;86.10
72262;BME280;60173;52.112;8.648;2023-12-04T05:15:40;100346.25;;;-0.99;85.84
72262;BME280;60173;52.112;8.648;2023-12-04T05:18:06;100346.50;;;-1.19;86.49
72262;BME280;60173;52.112;8.648;2023-12-04T05:20:33;100339.72;;;-1.15;86.91
72262;BME280;60173;52.112;8.648;2023-12-04T05:22:59;100340.28;;;-1.13;86.87
72262;BME280;60173;52.112;8.648;2023-12-04T05:25:26;100341.59;;;-0.85;85.67
72262;BME280;60173;52.112;8.648;2023-12-04T05:27:59;100340.13;;;-1.00;85.42
72262;BME280;60173;52.112;8.648;2023-12-04T05:30:26;100326.63;;;-0.86;86.10
72262;BME280;60173;52.112;8.648;2023-12-04T05:32:52;100332.72;;;-0.98;85.42
72262;BME280;60173;52.112;8.648;2023-12-04T05:35:18;100329.47;;;-1.00;85.38
72262;BME280;60173;52.112;8.648;2023-12-04T05:37:45;100324.13;;;-0.70;84.14
72262;BME280;60173;52.112;8.648;2023-12-04T05:40:11;100328.16;;;-0.79;84.38
72262;BME280;60173;52.112;8.648;2023-12-04T05:42:38;100322.06;;;-0.98;84.87
72262;BME280;60173;52.112;8.648;2023-12-04T05:45:05;100323.50;;;-0.83;85.55
72262;BME280;60173;52.112;8.648;2023-12-04T05:47:31;100324.03;;;-0.93;84.97
72262;BME280;60173;52.112;8.648;2023-12-04T05:49:58;100320.09;;;-0.91;85.08
72262;BME280;60173;52.112;8.648;2023-12-04T05:52:24;100314.63;;;-0.96;85.50
72262;BME280;60173;52.112;8.648;2023-12-04T05:54:51;100310.75;;;-1.11;86.17
72262;BME280;60173;52.112;8.648;2023-12-04T05:57:17;100313.72;;;-1.20;86.72
72262;BME280;60173;52.112;8.648;2023-12-04T05:59:43;100311.84;;;-1.19;86.60
72262;BME280;60173;52.112;8.648;2023-12-04T06:02:10;100320.06;;;-1.02;87.46
72262;BME280;60173;52.112;8.648;2023-12-04T06:04:36;100319.59;;;-0.99;85.72
72262;BME280;60173;52.112;8.648;2023-12-04T06:07:03;100308.13;;;-1.00;85.55
72262;BME280;60173;52.112;8.648;2023-12-04T06:09:29;100313.00;;;-0.97;85.11
72262;BME280;60173;52.112;8.648;2023-12-04T06:11:56;100317.09;;;-0.94;84.86
72262;BME280;60173;52.112;8.648;2023-12-04T06:14:22;100318.00;;;-1.00;85.10
72262;BME280;60173;52.112;8.648;2023-12-04T06:16:48;100308.72;;;-0.98;84.35
72262;BME280;60173;52.112;8.648;2023-12-04T06:19:15;100316.72;;;-0.98;84.88
72262;BME280;60173;52.112;8.648;2023-12-04T06:21:41;100310.91;;;-1.06;85.09
72262;BME280;60173;52.112;8.648;2023-12-04T06:24:08;100313.19;;;-1.10;85.52
72262;BME280;60173;52.112;8.648;2023-12-04T06:26:36;100304.06;;;-1.02;85.15
72262;BME280;60173;52.112;8.648;2023-12-04T06:29:05;100302.59;;;-0.98;85.56
72262;BME280;60173;52.112;8.648;2023-12-04T06:31:32;100306.78;;;-0.91;84.96
72262;BME280;60173;52.112;8.648;2023-12-04T06:33:59;100300.75;;;-0.98;83.58
72262;BME280;60173;52.112;8.648;2023-12-04T06:36:26;100303.72;;;-1.06;83.88
72262;BME280;60173;52.112;8.648;2023-12-04T06:38:55;100296.31;;;-1.04;84.24
72262;BME280;60173;52.112;8.648;2023-12-04T06:41:22;100302.72;;;-0.93;84.59
72262;BME280;60173;52.112;8.648;2023-12-04T06:43:48;100306.06;;;-0.98;84.03
72262;BME280;60173;52.112;8.648;2023-12-04T06:46:19;100306.44;;;-0.94;83.65
72262;BME280;60173;52.112;8.648;2023-12-04T06:48:48;100308.03;;;-0.93;83.56
72262;BME280;60173;52.112;8.648;2023-12-04T06:51:14;100303.63;;;-0.99;83.33
72262;BME280;60173;52.112;8.648;2023-12-04T06:53:41;100304.25;;;-0.85;83.20
72262;BME280;60173;52.112;8.648;2023-12-04T06:56:08;100302.34;;;-0.97;83.24
72262;BME280;60173;52.112;8.648;2023-12-04T06:58:34;100308.50;;;-0.96;83.54
72262;BME280;60173;52.112;8.648;2023-12-04T07:01:01;100312.31;;;-1.04;83.09
72262;BME280;60173;52.112;8.648;2023-12-04T07:03:27;100310.63;;;-0.86;84.13
72262;BME280;60173;52.112;8.648;2023-12-04T07:05:54;100316.53;;;-0.84;83.42
72262;BME280;60173;52.112;8.648;2023-12-04T07:08:20;100314.00;;;-0.79;83.15
72262;BME280;60173;52.112;8.648;2023-12-04T07:10:47;100315.25;;;-0.63;82.50
72262;BME280;60173;52.112;8.648;2023-12-04T07:13:13;100310.69;;;-0.75;82.85
72262;BME280;60173;52.112;8.648;2023-12-04T07:15:40;100304.53;;;-0.75;82.03
72262;BME280;60173;52.112;8.648;2023-12-04T07:18:06;100305.66;;;-0.83;82.59
72262;BME280;60173;52.112;8.648;2023-12-04T07:20:33;100307.06;;;-0.80;83.30
72262;BME280;60173;52.112;8.648;2023-12-04T07:22:59;100295.94;;;-0.77;82.56
72262;BME280;60173;52.112;8.648;2023-12-04T07:25:26;100291.81;;;-0.50;81.55
72262;BME280;60173;52.112;8.648;2023-12-04T07:27:52;100288.91;;;-0.60;81.55
72262;BME280;60173;52.112;8.648;2023-12-04T07:30:19;100289.25;;;-0.68;82.34
72262;BME280;60173;52.112;8.648;2023-12-04T07:32:45;100291.41;;;-0.77;82.44
72262;BME280;60173;52.112;8.648;2023-12-04T07:35:12;100295.34;;;-0.79;82.49
72262;BME280;60173;52.112;8.648;2023-12-04T07:37:38;100299.38;;;-0.88;82.50
72262;BME280;60173;52.112;8.648;2023-12-04T07:40:05;100294.72;;;-0.93;82.75
72262;BME280;60173;52.112;8.648;2023-12-04T07:42:32;100288.06;;;-1.02;82.49
72262;BME280;60173;52.112;8.648;2023-12-04T07:44:58;100281.34;;;-1.05;82.27
72262;BME280;60173;52.112;8.648;2023-12-04T07:47:25;100287.63;;;-0.99;81.59
72262;BME280;60173;52.112;8.648;2023-12-04T07:52:19;100286.63;;;-0.86;81.45
72262;BME280;60173;52.112;8.648;2023-12-04T07:54:46;100281.06;;;-0.85;81.29
72262;BME280;60173;52.112;8.648;2023-12-04T07:57:12;100275.69;;;-0.97;81.18
72262;BME280;60173;52.112;8.648;2023-12-04T07:59:38;100274.78;;;-0.91;81.01
72262;BME280;60173;52.112;8.648;2023-12-04T08:02:05;100273.41;;;-0.81;81.01
72262;BME280;60173;52.112;8.648;2023-12-04T08:04:31;100268.53;;;-0.84;81.26
72262;BME280;60173;52.112;8.648;2023-12-04T08:06:58;100265.06;;;-0.85;80.42
72262;BME280;60173;52.112;8.648;2023-12-04T08:09:24;100267.25;;;-0.94;80.77
72262;BME280;60173;52.112;8.648;2023-12-04T08:11:51;100270.38;;;-0.97;80.15
72262;BME280;60173;52.112;8.648;2023-12-04T08:14:20;100267.53;;;-0.83;80.60
72262;BME280;60173;52.112;8.648;2023-12-04T08:16:48;100259.28;;;-0.82;79.39
72262;BME280;60173;52.112;8.648;2023-12-04T08:19:14;100249.44;;;-0.70;79.64
72262;BME280;60173;52.112;8.648;2023-12-04T08:21:41;100254.78;;;-0.70;79.19
72262;BME280;60173;52.112;8.648;2023-12-04T08:24:07;100252.59;;;-0.61;79.42
72262;BME280;60173;52.112;8.648;2023-12-04T08:26:34;100253.00;;;-0.46;78.67
72262;BME280;60173;52.112;8.648;2023-12-04T08:29:00;100254.59;;;-0.44;78.18
72262;BME280;60173;52.112;8.648;2023-12-04T08:31:26;100248.00;;;-0.18;76.86
72262;BME280;60173;52.112;8.648;2023-12-04T08:33:53;100243.94;;;-0.33;77.41
72262;BME280;60173;52.112;8.648;2023-12-04T08:36:19;100237.09;;;-0.40;76.78
72262;BME280;60173;52.112;8.648;2023-12-04T08:38:46;100233.72;;;-0.36;76.68
72262;BME280;60173;52.112;8.648;2023-12-04T08:41:12;100227.78;;;-0.38;75.86
72262;BME280;60173;52.112;8.648;2023-12-04T08:43:39;100235.47;;;-0.41;76.41
72262;BME280;60173;52.112;8.648;2023-12-04T08:46:06;100230.44;;;-0.61;77.11
72262;BME280;60173;52.112;8.648;2023-12-04T08:48:32;100232.78;;;-0.65;77.59
72262;BME280;60173;52.112;8.648;2023-12-04T08:50:59;100219.00;;;-0.38;76.40
72262;BME280;60173;52.112;8.648;2023-12-04T08:53:26;100221.91;;;-0.28;75.89
72262;BME280;60173;52.112;8.648;2023-12-04T08:55:52;100219.69;;;-0.31;76.30
72262;BME280;60173;52.112;8.648;2023-12-04T08:58:18;100221.09;;;-0.40;76.55
72262;BME280;60173;52.112;8.648;2023-12-04T09:00:45;100216.78;;;-0.18;76.26
72262;BME280;60173;52.112;8.648;2023-12-04T09:03:12;100222.59;;;-0.33;76.45
72262;BME280;60173;52.112;8.648;2023-12-04T09:05:51;100217.72;;;-0.12;76.74
72262;BME280;60173;52.112;8.648;2023-12-04T09:08:18;100213.75;;;-0.10;76.24
72262;BME280;60173;52.112;8.648;2023-12-04T09:11:02;100208.53;;;0.07;75.53
72262;BME280;60173;52.112;8.648;2023-12-04T09:13:47;100213.38;;;0.22;74.43
72262;BME280;60173;52.112;8.648;2023-12-04T09:16:13;100205.13;;;0.24;73.83
72262;BME280;60173;52.112;8.648;2023-12-04T09:18:39;100211.47;;;0.34;73.50
72262;BME280;60173;52.112;8.648;2023-12-04T09:21:06;100203.63;;;0.16;73.66
72262;BME280;60173;52.112;8.648;2023-12-04T09:23:33;100199.84;;;-0.24;74.26
72262;BME280;60173;52.112;8.648;2023-12-04T09:25:59;100204.94;;;-0.10;74.52
72262;BME280;60173;52.112;8.648;2023-12-04T09:28:25;100200.84;;;0.11;74.30
72262;BME280;60173;52.112;8.648;2023-12-04T09:30:52;100201.06;;;0.21;74.21
72262;BME280;60173;52.112;8.648;2023-12-04T09:33:18;100195.78;;;0.50;72.90
72262;BME280;60173;52.112;8.648;2023-12-04T09:35:45;100190.50;;;0.83;72.69
72262;BME280;60173;52.112;8.648;2023-12-04T09:38:11;100183.47;;;0.94;71.73
72262;BME280;60173;52.112;8.648;2023-12-04T09:40:38;100177.66;;;1.14;70.57
72262;BME280;60173;52.112;8.648;2023-12-04T09:43:05;100182.69;;;1.10;70.68
72262;BME280;60173;52.112;8.648;2023-12-04T09:45:32;100176.25;;;0.95;71.09
72262;BME280;60173;52.112;8.648;2023-12-04T09:47:59;100171.00;;;1.00;70.82
72262;BME280;60173;52.112;8.648;2023-12-04T09:50:26;100175.13;;;0.90;71.50
72262;BME280;60173;52.112;8.648;2023-12-04T09:52:52;100176.06;;;1.13;70.17
72262;BME280;60173;52.112;8.648;2023-12-04T09:55:19;100166.31;;;0.90;69.29
72262;BME280;60173;52.112;8.648;2023-12-04T09:57:46;100161.09;;;0.83;70.46
72262;BME280;60173;52.112;8.648;2023-12-04T10:00:13;100163.28;;;0.58;70.64
72262;BME280;60173;52.112;8.648;2023-12-04T10:02:40;100160.38;;;0.88;71.19
72262;BME280;60173;52.112;8.648;2023-12-04T10:05:08;100156.41;;;0.90;69.67
72262;BME280;60173;52.112;8.648;2023-12-04T10:07:35;100157.34;;;1.13;69.32
72262;BME280;60173;52.112;8.648;2023-12-04T10:10:03;100151.00;;;1.19;68.37
72262;BME280;60173;52.112;8.648;2023-12-04T10:12:29;100143.78;;;1.03;69.07
72262;BME280;60173;52.112;8.648;2023-12-04T10:17:38;100132.56;;;0.72;70.04
72262;BME280;60173;52.112;8.648;2023-12-04T10:20:10;100131.63;;;0.78;70.33
72262;BME280;60173;52.112;8.648;2023-12-04T10:23:00;100130.66;;;0.84;70.47
72262;BME280;60173;52.112;8.648;2023-12-04T10:25:26;100125.63;;;1.05;69.36
72262;BME280;60173;52.112;8.648;2023-12-04T10:27:53;100124.97;;;0.98;69.59
72262;BME280;60173;52.112;8.648;2023-12-04T10:30:26;100113.44;;;0.80;70.14
72262;BME280;60173;52.112;8.648;2023-12-04T10:33:01;100111.53;;;0.76;70.67
72262;BME280;60173;52.112;8.648;2023-12-04T10:35:29;100101.69;;;0.64;71.38
72262;BME280;60173;52.112;8.648;2023-12-04T10:37:56;100088.34;;;0.81;71.02
72262;BME280;60173;52.112;8.648;2023-12-04T10:40:26;100079.91;;;0.89;70.31
72262;BME280;60173;52.112;8.648;2023-12-04T10:45:36;100084.22;;;0.74;70.40
72262;BME280;60173;52.112;8.648;2023-12-04T10:48:03;100079.84;;;0.84;70.03
72262;BME280;60173;52.112;8.648;2023-12-04T10:50:37;100080.25;;;0.76;70.75
72262;BME280;60173;52.112;8.648;2023-12-04T10:53:05;100075.22;;;0.80;69.48
72262;BME280;60173;52.112;8.648;2023-12-04T10:55:31;100080.56;;;0.80;69.29
72262;BME280;60173;52.112;8.648;2023-12-04T10:58:01;100087.19;;;0.77;68.34
72262;BME280;60173;52.112;8.648;2023-12-04T11:00:28;100070.75;;;0.85;69.72
72262;BME280;60173;52.112;8.648;2023-12-04T11:02:57;100058.69;;;0.83;68.82
72262;BME280;60173;52.112;8.648;2023-12-04T11:05:27;100063.88;;;0.89;70.18
72262;BME280;60173;52.112;8.648;2023-12-04T11:07:56;100061.28;;;0.78;69.58
72262;BME280;60173;52.112;8.648;2023-12-04T11:13:27;100059.50;;;0.50;71.25
72262;BME280;60173;52.112;8.648;2023-12-04T11:16:01;100049.69;;;0.55;71.22
72262;BME280;60173;52.112;8.648;2023-12-04T11:18:27;100044.84;;;0.52;70.73
72262;BME280;60173;52.112;8.648;2023-12-04T11:21:01;100045.66;;;0.53;71.02
72262;BME280;60173;52.112;8.648;2023-12-04T11:23:31;100042.56;;;0.44;71.50
72262;BME280;60173;52.112;8.648;2023-12-04T11:25:58;100036.81;;;0.52;70.60
72262;BME280;60173;52.112;8.648;2023-12-04T11:28:26;100032.00;;;0.37;71.08
72262;BME280;60173;52.112;8.648;2023-12-04T11:30:54;100035.13;;;0.63;69.97
72262;BME280;60173;52.112;8.648;2023-12-04T11:33:21;100020.28;;;0.72;69.65
72262;BME280;60173;52.112;8.648;2023-12-04T11:35:49;100020.13;;;0.79;68.57
72262;BME280;60173;52.112;8.648;2023-12-04T11:38:17;100013.16;;;0.78;68.08
72262;BME280;60173;52.112;8.648;2023-12-04T11:40:43;100011.72;;;0.87;68.97
72262;BME280;60173;52.112;8.648;2023-12-04T11:43:26;100004.41;;;0.82;69.42
72262;BME280;60173;52.112;8.648;2023-12-04T11:45:53;100010.13;;;1.08;69.41
72262;BME280;60173;52.112;8.648;2023-12-04T11:48:23;100002.75;;;0.98;69.01
72262;BME280;60173;52.112;8.648;2023-12-04T11:50:50;100000.84;;;0.94;69.44
72262;BME280;60173;52.112;8.648;2023-12-04T11:53:16;99994.34;;;0.89;69.12
72262;BME280;60173;52.112;8.648;2023-12-04T11:55:43;99988.50;;;0.93;68.41
72262;BME280;60173;52.112;8.648;2023-12-04T11:58:10;99985.41;;;1.01;67.70
72262;BME280;60173;52.112;8.648;2023-12-04T12:00:37;99975.69;;;0.73;69.78
72262;BME280;60173;52.112;8.648;2023-12-04T12:03:07;99979.97;;;0.57;69.77
72262;BME280;60173;52.112;8.648;2023-12-04T12:05:48;99986.47;;;0.61;69.81
72262;BME280;60173;52.112;8.648;2023-12-04T12:08:16;99990.34;;;0.70;69.29
72262;BME280;60173;52.112;8.648;2023-12-04T12:10:42;99991.47;;;0.74;67.72
72262;BME280;60173;52.112;8.648;2023-12-04T12:13:10;100000.19;;;0.86;68.44
72262;BME280;60173;52.112;8.648;2023-12-04T12:15:36;100000.69;;;0.83;68.09
72262;BME280;60173;52.112;8.648;2023-12-04T12:18:05;99990.81;;;0.67;68.65
72262;BME280;60173;52.112;8.648;2023-12-04T12:20:36;99991.69;;;0.89;68.32
72262;BME280;60173;52.112;8.648;2023-12-04T12:23:02;99981.22;;;1.05;67.80
72262;BME280;60173;52.112;8.648;2023-12-04T12:25:29;99968.97;;;1.09;68.90
72262;BME280;60173;52.112;8.648;2023-12-04T12:27:55;99963.44;;;0.77;69.86
72262;BME280;60173;52.112;8.648;2023-12-04T12:30:22;99960.53;;;0.78;70.52
72262;BME280;60173;52.112;8.648;2023-12-04T12:32:50;99957.13;;;0.66;70.64
72262;BME280;60173;52.112;8.648;2023-12-04T12:35:16;99954.53;;;0.71;71.04
72262;BME280;60173;52.112;8.648;2023-12-04T12:37:43;99957.06;;;1.00;70.24
72262;BME280;60173;52.112;8.648;2023-12-04T12:40:09;99948.00;;;0.84;70.03
72262;BME280;60173;52.112;8.648;2023-12-04T12:42:37;99938.91;;;1.02;69.22
72262;BME280;60173;52.112;8.648;2023-12-04T12:45:04;99928.91;;;0.75;69.00
72262;BME280;60173;52.112;8.648;2023-12-04T12:47:31;99926.69;;;0.67;70.06
72262;BME280;60173;52.112;8.648;2023-12-04T12:49:57;99921.00;;;0.63;70.50
72262;BME280;60173;52.112;8.648;2023-12-04T12:52:25;99912.66;;;0.60;70.82
72262;BME280;60173;52.112;8.648;2023-12-04T12:54:52;99914.19;;;0.73;70.83
72262;BME280;60173;52.112;8.648;2023-12-04T12:57:19;99911.09;;;0.81;70.52
72262;BME280;60173;52.112;8.648;2023-12-04T12:59:46;99917.94;;;0.55;70.84
72262;BME280;60173;52.112;8.648;2023-12-04T13:02:13;99908.22;;;0.65;70.91